createdAt,value
2023-04-08T03:47:19.001Z,101926.75
2023-04-08T03:49:48.272Z,101918.34
2023-04-08T03:52:16.294Z,101935.13
2023-04-08T03:54:48.256Z,101933.16
2023-04-08T03:57:50.774Z,101937.25
2023-04-08T04:51:27.324Z,101984.97
2023-04-08T04:53:55.271Z,101992.56
2023-04-08T04:56:55.862Z,101996.53
2023-04-08T04:59:24.141Z,101989.28
2023-04-08T05:02:07.540Z,101986.47
2023-04-08T05:04:36.268Z,101992.09
2023-04-08T05:07:05.870Z,101993.22
2023-04-08T05:09:33.851Z,101993.22
2023-04-08T05:12:01.951Z,102001.59
2023-04-08T05:14:30.407Z,102002.78
2023-04-08T05:16:58.689Z,102006.91
2023-04-08T05:19:26.998Z,102014.94
2023-04-08T05:21:55.022Z,102012.16
2023-04-08T05:24:24.646Z,102022.19
2023-04-08T05:26:53.479Z,102018.22
2023-04-08T05:29:22.121Z,102029.41
2023-04-08T05:31:53.086Z,102026.63
2023-04-08T05:34:23.287Z,102031.09
2023-04-08T05:36:53.001Z,102029.41
2023-04-08T05:39:21.141Z,102036.19
2023-04-08T05:41:50.681Z,102038.97
2023-04-08T05:44:18.966Z,102038.63
2023-04-08T05:46:47.294Z,102036.69
2023-04-08T05:49:15.903Z,102038.97
2023-04-08T05:51:44.285Z,102040.59
2023-04-08T05:54:12.469Z,102038.97
2023-04-08T05:56:40.735Z,102046.22
2023-04-08T05:59:10.434Z,102049.00
2023-04-08T06:01:39.070Z,102045.38
2023-04-08T06:04:10.606Z,102044.22
2023-04-08T06:06:41.137Z,102048.19
2023-04-08T06:09:13.813Z,102053.47
2023-04-08T06:11:43.436Z,102056.75
2023-04-08T06:14:15.939Z,102053.94
2023-04-08T06:16:47.875Z,102056.75
2023-04-08T06:19:20.340Z,102069.94
2023-04-08T06:21:53.797Z,102068.75
2023-04-08T06:24:25.861Z,102070.75
2023-04-08T06:26:59.084Z,102075.00
2023-04-08T06:29:43.091Z,102075.88
2023-04-08T06:32:20.021Z,102083.41
2023-04-08T06:34:52.760Z,102081.47
2023-04-08T06:37:21.188Z,102087.06
2023-04-08T06:39:49.800Z,102087.06
2023-04-08T06:43:14.495Z,102091.00
2023-04-08T06:45:49.337Z,102092.66
2023-04-08T06:48:46.980Z,102086.22
2023-04-08T06:51:28.010Z,102103.84
2023-04-08T06:54:17.541Z,102107.13
2023-04-08T06:56:52.828Z,102111.91
2023-04-08T06:59:25.714Z,102107.94
2023-04-08T07:02:03.636Z,102113.53
2023-04-08T07:04:34.559Z,102117.50
2023-04-08T07:07:03.400Z,102122.28
2023-04-08T07:09:43.911Z,102128.69
2023-04-08T07:12:40.268Z,102130.34
2023-04-08T07:15:15.513Z,102122.28
2023-04-08T07:17:48.082Z,102123.91
2023-04-08T07:20:18.575Z,102137.56
2023-04-08T07:22:53.635Z,102124.41
2023-04-08T07:25:25.193Z,102131.16
2023-04-08T07:27:57.173Z,102135.13
2023-04-08T07:30:26.903Z,102134.44
2023-04-08T07:33:00.446Z,102133.63
2023-04-08T07:35:42.731Z,102134.44
2023-04-08T07:38:14.466Z,102145.63
2023-04-08T07:40:43.512Z,102137.75
2023-04-08T07:43:19.587Z,102136.94
2023-04-08T07:45:56.026Z,102133.78
2023-04-08T07:48:34.061Z,102137.75
2023-04-08T07:54:00.121Z,102154.53
2023-04-08T07:56:32.299Z,102149.78
2023-04-08T07:59:02.315Z,102150.59
2023-04-08T08:04:39.762Z,102157.81
2023-04-08T08:07:15.694Z,102160.63
2023-04-08T08:09:58.580Z,102165.06
2023-04-08T08:12:29.252Z,102165.06
2023-04-08T08:15:09.634Z,102176.25
2023-04-08T08:17:54.175Z,102167.88
2023-04-08T08:20:32.993Z,102162.25
2023-04-08T08:23:19.374Z,102172.34
2023-04-08T08:26:04.120Z,102171.47
2023-04-08T08:28:37.028Z,102169.03
2023-04-08T08:34:14.545Z,102171.47
2023-04-08T08:36:53.679Z,102170.66
2023-04-08T08:39:25.953Z,102177.94
2023-04-08T08:42:01.371Z,102172.34
2023-04-08T08:44:30.816Z,102173.16
2023-04-08T08:47:53.145Z,102182.38
2023-04-08T08:50:41.166Z,102187.47
2023-04-08T08:53:12.783Z,102181.84
2023-04-08T08:56:13.714Z,102189.94
2023-04-08T08:58:36.822Z,102190.78
2023-04-08T09:01:07.681Z,102190.78
2023-04-08T09:03:41.737Z,102200.31
2023-04-08T09:06:18.225Z,102207.56
2023-04-08T09:09:06.584Z,102198.34
2023-04-08T09:11:41.756Z,102207.56
2023-04-08T09:14:29.941Z,102203.59
2023-04-08T09:17:14.664Z,102212.81
2023-04-08T09:23:04.339Z,102214.81
2023-04-08T09:25:43.526Z,102217.25
2023-04-08T09:28:31.580Z,102227.63
2023-04-08T09:31:13.967Z,102227.63
2023-04-08T09:34:03.977Z,102233.25
2023-04-08T09:36:35.795Z,102233.25
2023-04-08T09:39:11.012Z,102234.06
2023-04-08T09:41:54.631Z,102234.06
2023-04-08T09:44:28.247Z,102231.59
2023-04-08T09:47:25.957Z,102241.63
2023-04-08T09:50:18.023Z,102244.44
2023-04-08T09:52:55.288Z,102242.81
2023-04-08T09:55:41.101Z,102241.63
2023-04-08T09:58:17.965Z,102234.75
2023-04-08T10:00:51.379Z,102241.63
2023-04-08T10:07:01.649Z,102247.06
2023-04-08T10:09:31.687Z,102245.13
2023-04-08T10:12:06.682Z,102251.53
2023-04-08T10:14:37.325Z,102253.50
2023-04-08T10:17:24.740Z,102249.56
2023-04-08T10:20:10.231Z,102246.75
2023-04-08T10:22:51.454Z,102253.19
2023-04-08T10:25:41.005Z,102251.19
2023-04-08T10:28:36.850Z,102261.22
2023-04-08T10:31:43.015Z,102249.22
2023-04-08T10:37:46.866Z,102250.03
2023-04-08T10:41:06.882Z,102250.84
2023-04-08T10:43:53.496Z,102246.09
2023-04-08T10:46:37.060Z,102244.44
2023-04-08T10:49:17.445Z,102247.56
2023-04-08T10:51:56.502Z,102251.19
2023-04-08T10:58:09.415Z,102246.41
2023-04-08T11:01:13.864Z,102246.09
2023-04-08T11:03:55.864Z,102253.34
2023-04-08T11:06:26.432Z,102244.44
2023-04-08T11:09:05.849Z,102250.03
2023-04-08T11:11:39.067Z,102244.44
2023-04-08T11:14:07.732Z,102246.75
2023-04-08T11:16:39.417Z,102246.75
2023-04-08T11:19:24.592Z,102253.50
2023-04-08T11:21:59.316Z,102249.03
2023-04-08T11:24:29.536Z,102254.63
2023-04-08T11:27:01.295Z,102259.41
2023-04-08T11:29:30.596Z,102256.31
2023-04-08T11:32:09.707Z,102243.97
2023-04-08T11:34:48.454Z,102260.41
2023-04-08T11:37:29.535Z,102260.75
2023-04-08T11:40:01.766Z,102260.41
2023-04-08T11:42:33.621Z,102254.81
2023-04-08T11:45:24.016Z,102257.28
2023-04-08T11:48:12.127Z,102255.00
2023-04-08T11:51:40.651Z,102255.00
2023-04-08T11:54:54.853Z,102254.47
2023-04-08T11:58:27.169Z,102246.09
2023-04-08T12:08:22.373Z,102250.84
2023-04-08T12:11:55.036Z,102242.16
2023-04-08T12:14:56.559Z,102246.09
2023-04-08T12:17:49.648Z,102244.97
2023-04-08T12:20:30.595Z,102253.34
2023-04-08T12:23:04.386Z,102247.75
2023-04-08T12:25:35.365Z,102250.56
2023-04-08T12:28:05.150Z,102255.00
2023-04-08T12:30:54.408Z,102251.03
2023-04-08T12:33:48.893Z,102252.69
2023-04-08T12:36:36.329Z,102259.91
2023-04-08T12:39:22.524Z,102251.53
2023-04-08T12:42:04.056Z,102254.31
2023-04-08T12:44:32.851Z,102256.31
2023-04-08T12:47:01.875Z,102254.31
2023-04-08T12:49:39.676Z,102249.53
2023-04-08T12:52:23.264Z,102247.25
2023-04-08T12:54:57.273Z,102238.53
2023-04-08T12:57:43.249Z,102233.75
2023-04-08T13:00:15.552Z,102244.13
2023-04-08T13:02:45.863Z,102232.91
2023-04-08T13:05:17.108Z,102234.72
2023-04-08T13:07:47.790Z,102242.31
2023-04-08T13:10:49.330Z,102231.44
2023-04-08T13:13:25.729Z,102230.28
2023-04-08T13:16:03.953Z,102227.47
2023-04-08T13:18:39.283Z,102222.69
2023-04-08T13:21:08.887Z,102223.84
2023-04-08T13:23:37.420Z,102223.53
2023-04-08T13:26:09.644Z,102218.44
2023-04-08T13:28:55.839Z,102217.28
2023-04-08T13:31:28.091Z,102220.06
2023-04-08T13:34:10.062Z,102219.25
2023-04-08T13:36:40.843Z,102224.03
2023-04-08T13:39:12.784Z,102224.53
2023-04-08T13:41:42.666Z,102233.75
2023-04-08T13:44:13.677Z,102224.19
2023-04-08T13:46:43.075Z,102212.16
2023-04-08T13:49:14.269Z,102217.75
2023-04-08T13:51:48.656Z,102219.75
2023-04-08T13:54:18.867Z,102212.16
2023-04-08T13:56:55.903Z,102215.78
2023-04-08T13:59:25.796Z,102213.81
2023-04-08T14:01:54.443Z,102217.75
2023-04-08T14:04:24.264Z,102213.81
2023-04-08T14:06:53.819Z,102206.56
2023-04-08T14:09:24.316Z,102211.00
2023-04-08T14:11:53.099Z,102210.69
2023-04-08T14:14:22.358Z,102206.56
2023-04-08T14:16:56.065Z,102199.31
2023-04-08T14:19:26.652Z,102214.47
2023-04-08T14:22:00.718Z,102208.06
2023-04-08T14:24:31.887Z,102212.84
2023-04-08T14:27:04.052Z,102207.25
2023-04-08T14:29:32.501Z,102207.25
2023-04-08T14:32:02.657Z,102207.25
2023-04-08T14:34:30.993Z,102201.63
2023-04-08T14:36:59.788Z,102203.94
2023-04-08T14:39:30.982Z,102199.97
2023-04-08T14:42:00.411Z,102203.28
2023-04-08T14:44:28.962Z,102200.13
2023-04-08T14:46:57.493Z,102199.31
2023-04-08T14:49:27.013Z,102203.75
2023-04-08T14:51:55.231Z,102207.38
2023-04-08T14:54:26.668Z,102200.63
2023-04-08T14:56:56.381Z,102207.06
2023-04-08T14:59:24.819Z,102205.09
2023-04-08T15:01:53.400Z,102205.91
2023-04-08T15:04:22.090Z,102211.50
2023-04-08T15:06:52.957Z,102200.31
2023-04-08T15:09:24.868Z,102200.31
2023-04-08T15:11:55.350Z,102200.31
2023-04-08T15:14:23.539Z,102202.59
2023-04-08T15:16:51.954Z,102200.97
2023-04-08T15:19:20.788Z,102201.78
2023-04-08T15:21:49.397Z,102212.16
2023-04-08T15:24:19.551Z,102212.16
2023-04-08T15:26:47.941Z,102208.88
2023-04-08T15:29:15.963Z,102203.28
2023-04-08T15:31:47.078Z,102208.88
2023-04-08T15:34:15.465Z,102208.88
2023-04-08T15:36:44.303Z,102207.25
2023-04-08T15:39:15.706Z,102198.50
2023-04-08T15:41:45.351Z,102194.88
2023-04-08T15:44:13.487Z,102197.69
2023-04-08T15:46:41.949Z,102203.28
2023-04-08T15:49:10.335Z,102210.53
2023-04-08T15:51:44.582Z,102207.72
2023-04-08T15:54:12.957Z,102208.53
2023-04-08T15:56:41.731Z,102212.16
2023-04-08T15:59:11.500Z,102204.91
2023-04-08T16:01:43.956Z,102216.13
2023-04-08T16:04:14.326Z,102205.75
2023-04-08T16:06:47.311Z,102206.56
2023-04-08T16:09:19.044Z,102220.56
2023-04-08T16:11:47.696Z,102214.97
2023-04-08T16:14:18.098Z,102216.13
2023-04-08T16:16:49.246Z,102222.53
2023-04-08T16:19:22.316Z,102222.38
2023-04-08T16:21:50.603Z,102220.72
2023-04-08T16:24:20.901Z,102229.13
2023-04-08T16:26:49.924Z,102223.53
2023-04-08T16:29:19.825Z,102225.50
2023-04-08T16:31:48.159Z,102231.91
2023-04-08T16:34:19.636Z,102234.25
2023-04-08T16:36:51.842Z,102235.06
2023-04-08T16:39:25.708Z,102234.25
2023-04-08T16:42:00.717Z,102238.19
2023-04-08T16:44:33.358Z,102241.00
2023-04-08T16:47:07.851Z,102243.78
2023-04-08T16:49:39.146Z,102250.56
2023-04-08T16:52:13.243Z,102240.47
2023-04-08T16:54:43.832Z,102244.97
2023-04-08T16:57:17.723Z,102248.72
2023-04-08T16:59:51.584Z,102242.31
2023-04-08T17:02:32.359Z,102251.03
2023-04-08T17:05:00.927Z,102258.28
2023-04-08T17:07:30.109Z,102254.31
2023-04-08T17:09:59.158Z,102265.53
2023-04-08T17:12:30.762Z,102269.47
2023-04-08T17:15:14.299Z,102274.59
2023-04-08T17:17:44.799Z,102283.28
2023-04-08T17:20:13.611Z,102296.31
2023-04-08T17:22:49.106Z,102290.53
2023-04-08T17:25:27.105Z,102296.16
2023-04-08T17:27:55.735Z,102300.59
2023-04-08T17:30:27.029Z,102307.66
2023-04-08T17:32:55.727Z,102318.88
2023-04-08T17:35:24.259Z,102320.84
2023-04-08T17:37:52.638Z,102329.25
2023-04-08T17:40:23.889Z,102333.69
2023-04-08T17:42:53.767Z,102342.91
2023-04-08T17:45:24.213Z,102348.84
2023-04-08T17:47:53.918Z,102348.03
2023-04-08T17:50:22.292Z,102356.09
2023-04-08T17:52:50.336Z,102363.31
2023-04-08T17:55:18.601Z,102370.06
2023-04-08T17:57:47.234Z,102372.34
2023-04-08T18:00:17.086Z,102379.94
2023-04-08T18:02:47.708Z,102384.06
2023-04-08T18:05:22.108Z,102389.34
2023-04-08T18:07:50.543Z,102394.13
2023-04-08T18:10:19.018Z,102398.41
2023-04-08T18:12:48.980Z,102409.28
2023-04-08T18:15:17.782Z,102412.06
2023-04-08T18:17:45.929Z,102423.25
2023-04-08T18:20:14.335Z,102414.34
2023-04-08T18:22:44.100Z,102421.63
2023-04-08T18:25:12.295Z,102421.63
2023-04-08T18:27:40.806Z,102427.22
2023-04-08T18:30:09.535Z,102434.47
2023-04-08T18:32:37.754Z,102432.47
2023-04-08T18:35:06.107Z,102433.31
2023-04-08T18:37:34.862Z,102443.34
2023-04-08T18:40:04.974Z,102448.13
2023-04-08T18:42:37.491Z,102453.72
2023-04-08T18:45:06.482Z,102458.50
2023-04-08T18:47:35.520Z,102462.44
2023-04-08T18:50:03.915Z,102468.06
2023-04-08T18:52:32.402Z,102469.69
2023-04-08T18:55:00.997Z,102469.69
2023-04-08T18:57:33.064Z,102464.09
2023-04-08T19:00:02.385Z,102465.75
2023-04-08T19:02:34.017Z,102460.16
2023-04-08T19:05:02.612Z,102459.00
2023-04-08T19:07:31.862Z,102464.59
2023-04-08T19:10:00.118Z,102461.78
2023-04-08T19:12:28.322Z,102466.25
2023-04-08T19:15:05.351Z,102467.38
2023-04-08T19:17:47.549Z,102479.41
2023-04-08T19:20:16.416Z,102479.41
2023-04-08T19:22:48.669Z,102479.41
2023-04-08T19:25:19.725Z,102475.78
2023-04-08T19:27:49.145Z,102484.19
2023-04-08T19:30:23.590Z,102472.16
2023-04-08T19:32:54.376Z,102466.56
2023-04-08T19:35:23.909Z,102477.47
2023-04-08T19:37:53.275Z,102480.25
2023-04-08T19:40:22.541Z,102475.50
2023-04-08T19:42:55.531Z,102480.25
2023-04-08T19:45:27.247Z,102483.06
2023-04-08T19:47:56.037Z,102483.06
2023-04-08T19:50:26.131Z,102481.91
2023-04-08T19:52:58.030Z,102481.09
2023-04-08T19:55:27.880Z,102481.91
2023-04-08T19:57:59.060Z,102479.41
2023-04-08T20:00:32.481Z,102484.72
2023-04-08T20:03:04.056Z,102481.38
2023-04-08T20:05:36.946Z,102480.25
2023-04-08T20:08:07.643Z,102481.09
2023-04-08T20:10:44.852Z,102484.72
2023-04-08T20:13:15.147Z,102487.50
2023-04-08T20:15:47.172Z,102481.09
2023-04-08T20:18:17.755Z,102481.91
2023-04-08T20:20:53.795Z,102479.41
2023-04-08T20:23:29.447Z,102482.22
2023-04-08T20:29:59.398Z,102480.25
2023-04-08T20:33:04.404Z,102483.06
2023-04-08T20:35:35.902Z,102481.38
2023-04-08T20:38:08.141Z,102489.47
2023-04-08T20:40:38.288Z,102493.09
2023-04-08T20:43:17.411Z,102485.88
2023-04-08T20:45:46.375Z,102486.69
2023-04-08T20:48:30.162Z,102490.59
2023-04-08T20:51:00.367Z,102497.06
2023-04-08T20:53:29.680Z,102492.28
2023-04-08T20:55:58.374Z,102496.22
2023-04-08T20:58:27.203Z,102492.59
2023-04-08T21:00:56.666Z,102489.78
2023-04-08T21:03:25.398Z,102495.38
2023-04-08T21:05:55.445Z,102492.59
2023-04-08T21:08:26.274Z,102489.78
2023-04-08T21:10:56.125Z,102496.22
2023-04-08T21:13:25.062Z,102486.97
2023-04-08T21:15:53.582Z,102498.19
2023-04-08T21:18:23.262Z,102495.38
2023-04-08T21:20:52.587Z,102493.75
2023-04-08T21:23:21.747Z,102494.56
2023-04-08T21:26:03.331Z,102502.13
2023-04-08T21:28:42.896Z,102499.34
2023-04-08T21:31:15.469Z,102497.69
2023-04-08T21:33:50.018Z,102505.75
2023-04-08T21:36:20.820Z,102504.13
2023-04-08T21:38:51.757Z,102499.34
2023-04-08T21:41:23.809Z,102503.28
2023-04-08T21:43:54.988Z,102496.88
2023-04-08T21:46:24.248Z,102498.50
2023-04-08T21:48:54.442Z,102497.69
2023-04-08T21:51:23.446Z,102495.72
2023-04-08T21:53:53.522Z,102504.13
2023-04-08T21:56:25.271Z,102506.09
2023-04-08T21:58:57.657Z,102496.03
2023-04-08T22:01:27.304Z,102496.88
2023-04-08T22:04:01.214Z,102495.22
2023-04-08T22:06:35.050Z,102496.03
2023-04-08T22:09:08.758Z,102495.22
2023-04-08T22:11:40.385Z,102495.22
2023-04-08T22:14:09.416Z,102494.41
2023-04-08T22:16:38.599Z,102494.41
2023-04-08T22:19:08.385Z,102491.59
2023-04-08T22:21:38.433Z,102488.81
2023-04-08T22:24:10.081Z,102488.81
2023-04-08T22:26:40.208Z,102493.56
2023-04-08T22:29:11.161Z,102486.31
2023-04-08T22:31:40.301Z,102484.31
2023-04-08T22:34:11.746Z,102481.53
2023-04-08T22:36:44.899Z,102490.78
2023-04-08T22:39:13.487Z,102491.91
2023-04-08T22:41:46.032Z,102486.31
2023-04-08T22:44:15.674Z,102485.47
2023-04-08T22:46:45.180Z,102485.47
2023-04-08T22:49:13.759Z,102491.06
2023-04-08T22:51:43.350Z,102479.88
2023-04-08T22:54:11.740Z,102485.47
2023-04-08T22:56:41.585Z,102478.22
2023-04-08T22:59:12.472Z,102476.59
2023-04-08T23:01:42.108Z,102478.22
2023-04-08T23:04:10.458Z,102483.00
2023-04-08T23:06:38.619Z,102483.84
2023-04-08T23:09:06.687Z,102483.84
2023-04-08T23:11:34.804Z,102482.19
2023-04-08T23:14:02.826Z,102480.53
2023-04-08T23:16:32.653Z,102476.59
2023-04-08T23:19:00.913Z,102478.56
2023-04-08T23:21:29.229Z,102475.75
2023-04-08T23:23:57.377Z,102474.94
2023-04-08T23:26:25.548Z,102469.34
2023-04-08T23:28:54.283Z,102468.53
